createdAt,value
2019-04-06T00:00:50.556Z,1.80
2019-04-06T00:03:22.365Z,1.71
2019-04-06T00:05:54.397Z,1.62
2019-04-06T00:08:26.497Z,1.66
2019-04-06T00:10:58.308Z,1.52
2019-04-06T00:13:30.327Z,1.30
2019-04-06T00:16:02.208Z,1.03
2019-04-06T00:18:34.190Z,1.14
2019-04-06T00:21:06.061Z,1.14
2019-04-06T00:23:37.797Z,1.11
2019-04-06T00:26:09.669Z,1.16
2019-04-06T00:28:42.479Z,1.15
2019-04-06T00:31:45.500Z,1.10
2019-04-06T00:34:17.217Z,1.31
2019-04-06T00:36:49.273Z,1.39
2019-04-06T00:39:21.092Z,1.32
2019-04-06T00:41:52.819Z,1.46
2019-04-06T00:44:24.637Z,1.53
2019-04-06T00:46:56.506Z,1.63
2019-04-06T00:49:28.315Z,1.58
2019-04-06T00:52:00.105Z,1.58
2019-04-06T00:54:31.989Z,1.64
2019-04-06T00:57:03.738Z,1.60
2019-04-06T00:59:36.860Z,1.55
2019-04-06T01:02:08.881Z,1.52
2019-04-06T01:04:40.674Z,1.52
2019-04-06T01:07:12.763Z,1.50
2019-04-06T01:09:44.582Z,1.57
2019-04-06T01:12:16.660Z,1.61
2019-04-06T01:14:48.414Z,1.66
2019-04-06T01:17:20.565Z,1.51
2019-04-06T01:19:52.486Z,1.47
2019-04-06T01:22:24.250Z,1.45
2019-04-06T01:24:56.282Z,1.48
2019-04-06T01:27:28.024Z,1.35
2019-04-06T01:29:59.841Z,1.28
2019-04-06T01:32:31.645Z,1.25
2019-04-06T01:35:03.387Z,1.07
2019-04-06T01:37:35.256Z,0.92
2019-04-06T01:40:07.587Z,0.87
2019-04-06T01:42:39.382Z,0.89
2019-04-06T01:45:12.283Z,0.80
2019-04-06T01:47:44.022Z,0.78
2019-04-06T01:50:16.192Z,0.79
2019-04-06T01:52:47.898Z,0.79
2019-04-06T01:55:19.988Z,0.78
2019-04-06T01:57:51.768Z,0.70
2019-04-06T02:00:23.571Z,0.80
2019-04-06T02:02:55.423Z,0.76
2019-04-06T02:05:27.316Z,0.76
2019-04-06T02:07:59.114Z,0.65
2019-04-06T02:10:30.830Z,0.58
2019-04-06T02:13:02.847Z,0.48
2019-04-06T02:15:34.607Z,0.53
2019-04-06T02:18:06.393Z,0.51
2019-04-06T02:20:38.457Z,0.53
2019-04-06T02:23:10.593Z,0.50
2019-04-06T02:25:42.336Z,0.44
2019-04-06T02:28:14.081Z,0.40
2019-04-06T02:31:03.781Z,0.35
2019-04-06T02:33:46.424Z,0.30
2019-04-06T02:36:35.778Z,0.34
2019-04-06T02:42:08.093Z,0.30
2019-04-06T02:44:39.855Z,0.32
2019-04-06T02:47:11.905Z,0.32
2019-04-06T02:49:43.714Z,0.23
2019-04-06T02:52:15.507Z,0.21
2019-04-06T02:54:47.267Z,0.10
2019-04-06T02:57:19.025Z,0.09
2019-04-06T02:59:50.793Z,0.18
2019-04-06T03:02:22.670Z,0.21
2019-04-06T03:04:54.480Z,0.15
2019-04-06T03:07:26.353Z,0.21
2019-04-06T03:09:58.848Z,0.58
2019-04-06T03:12:30.943Z,0.49
2019-04-06T03:15:02.959Z,0.68
2019-04-06T03:17:34.762Z,0.70
2019-04-06T03:20:07.525Z,0.69
2019-04-06T03:22:39.329Z,0.75
2019-04-06T03:25:11.912Z,0.82
2019-04-06T03:27:43.944Z,0.87
2019-04-06T03:30:16.052Z,0.90
2019-04-06T03:32:47.778Z,0.90
2019-04-06T03:35:19.514Z,1.00
2019-04-06T03:37:51.916Z,1.04
2019-04-06T03:40:23.644Z,1.12
2019-04-06T03:42:55.755Z,0.79
2019-04-06T03:45:27.501Z,1.18
2019-04-06T03:48:00.242Z,0.91
2019-04-06T03:50:32.025Z,0.97
2019-04-06T03:53:03.899Z,0.89
2019-04-06T03:55:36.076Z,0.93
2019-04-06T03:58:07.813Z,0.90
2019-04-06T04:00:39.624Z,0.96
2019-04-06T04:03:11.950Z,1.00
2019-04-06T04:05:44.039Z,1.06
2019-04-06T04:08:15.770Z,1.11
2019-04-06T04:10:48.055Z,1.15
2019-04-06T04:13:20.219Z,1.15
2019-04-06T04:15:52.230Z,1.18
2019-04-06T04:18:24.055Z,1.20
2019-04-06T04:20:56.426Z,1.24
2019-04-06T04:23:28.146Z,1.26
2019-04-06T04:26:00.052Z,1.32
2019-04-06T04:28:31.787Z,1.35
2019-04-06T04:31:03.605Z,1.36
2019-04-06T04:33:35.393Z,1.41
2019-04-06T04:36:07.235Z,1.42
2019-04-06T04:38:39.161Z,1.45
2019-04-06T04:41:11.410Z,1.43
2019-04-06T04:43:43.362Z,1.49
2019-04-06T04:46:15.141Z,1.52
2019-04-06T04:48:47.168Z,1.41
2019-04-06T04:51:18.974Z,1.49
2019-04-06T04:53:50.855Z,1.59
2019-04-06T04:56:22.594Z,1.51
2019-04-06T04:58:54.671Z,1.61
2019-04-06T05:01:26.798Z,1.66
2019-04-06T05:03:58.856Z,1.70
2019-04-06T05:06:30.917Z,1.71
2019-04-06T05:09:02.676Z,1.75
2019-04-06T05:11:34.853Z,1.80
2019-04-06T05:15:00.257Z,1.83
2019-04-06T05:17:32.147Z,1.85
2019-04-06T05:20:04.125Z,2.05
2019-04-06T05:22:35.943Z,1.91
2019-04-06T05:25:08.933Z,1.97
2019-04-06T05:27:51.257Z,2.09
2019-04-06T05:30:14.802Z,2.26
2019-04-06T05:32:46.541Z,2.23
2019-04-06T05:35:18.594Z,2.08
2019-04-06T05:37:50.338Z,2.08
2019-04-06T05:40:22.058Z,2.10
2019-04-06T05:42:53.793Z,2.15
2019-04-06T05:45:26.500Z,2.15
2019-04-06T05:47:58.561Z,2.20
2019-04-06T05:50:30.665Z,2.26
2019-04-06T05:53:02.519Z,2.25
2019-04-06T05:55:34.291Z,2.45
2019-04-06T05:58:09.805Z,2.44
2019-04-06T06:00:40.532Z,2.45
2019-04-06T06:03:15.349Z,2.59
2019-04-06T06:05:46.429Z,2.58
2019-04-06T06:08:19.648Z,2.60
2019-04-06T06:10:51.822Z,2.57
2019-04-06T06:13:23.953Z,2.49
2019-04-06T06:15:55.636Z,2.53
2019-04-06T06:18:27.739Z,2.55
2019-04-06T06:20:59.565Z,2.73
2019-04-06T06:23:31.608Z,2.53
2019-04-06T06:26:03.566Z,2.61
2019-04-06T06:28:35.366Z,2.60
2019-04-06T06:31:07.308Z,2.68
2019-04-06T06:33:39.380Z,2.71
2019-04-06T06:36:11.915Z,2.79
2019-04-06T06:38:43.794Z,2.83
2019-04-06T06:41:15.632Z,2.91
2019-04-06T06:43:47.456Z,2.94
2019-04-06T06:46:19.298Z,3.00
2019-04-06T06:48:51.041Z,3.14
2019-04-06T06:51:22.785Z,3.19
2019-04-06T06:53:54.772Z,3.25
2019-04-06T06:56:26.658Z,3.33
2019-04-06T06:58:59.803Z,3.35
2019-04-06T07:01:31.621Z,3.37
2019-04-06T07:04:03.543Z,3.36
2019-04-06T07:06:35.363Z,3.41
2019-04-06T07:09:08.652Z,3.42
2019-04-06T07:11:40.435Z,3.36
2019-04-06T07:14:12.772Z,3.52
2019-04-06T07:16:44.501Z,3.45
2019-04-06T07:19:16.233Z,3.52
2019-04-06T07:21:48.311Z,3.59
2019-04-06T07:24:20.375Z,3.63
2019-04-06T07:26:52.182Z,3.69
2019-04-06T07:29:24.022Z,3.78
2019-04-06T07:31:55.785Z,3.83
2019-04-06T07:34:27.580Z,3.91
2019-04-06T07:36:59.374Z,3.92
2019-04-06T07:39:31.727Z,4.06
2019-04-06T07:42:03.862Z,4.10
2019-04-06T07:44:35.643Z,4.22
2019-04-06T07:47:07.388Z,4.34
2019-04-06T07:49:39.124Z,4.44
2019-04-06T07:52:12.198Z,4.53
2019-04-06T07:54:43.942Z,4.63
2019-04-06T07:57:15.999Z,4.68
2019-04-06T07:59:47.913Z,4.80
2019-04-06T08:02:19.596Z,4.86
2019-04-06T08:04:51.844Z,4.91
2019-04-06T08:07:23.659Z,5.01
2019-04-06T08:09:55.409Z,5.08
2019-04-06T08:12:27.286Z,5.18
2019-04-06T08:14:59.047Z,5.25
2019-04-06T08:17:31.932Z,5.36
2019-04-06T08:20:03.772Z,5.41
2019-04-06T08:22:35.519Z,5.43
2019-04-06T08:25:08.306Z,5.48
2019-04-06T08:27:40.060Z,5.58
2019-04-06T08:30:12.279Z,5.66
2019-04-06T08:32:44.294Z,5.73
2019-04-06T08:35:25.237Z,5.82
2019-04-06T08:37:50.282Z,5.84
2019-04-06T08:40:22.393Z,5.85
2019-04-06T08:42:54.904Z,5.89
2019-04-06T08:45:27.033Z,5.96
2019-04-06T08:47:58.832Z,6.01
2019-04-06T08:50:31.259Z,6.11
2019-04-06T08:53:03.116Z,6.23
2019-04-06T08:55:34.854Z,6.42
2019-04-06T08:58:06.855Z,6.52
2019-04-06T09:00:38.928Z,6.68
2019-04-06T09:03:11.516Z,6.77
2019-04-06T09:05:43.403Z,6.89
2019-04-06T09:08:15.186Z,6.99
2019-04-06T09:10:46.976Z,7.09
2019-04-06T09:13:19.060Z,7.17
2019-04-06T09:15:50.790Z,7.30
2019-04-06T09:18:22.917Z,7.44
2019-04-06T09:20:55.053Z,7.55
2019-04-06T09:23:26.843Z,7.68
2019-04-06T09:25:58.581Z,7.80
2019-04-06T09:28:30.799Z,7.88
2019-04-06T09:31:02.887Z,7.98
2019-04-06T09:33:34.636Z,8.06
2019-04-06T09:36:07.272Z,8.14
2019-04-06T09:38:39.503Z,8.24
2019-04-06T09:41:11.691Z,8.35
2019-04-06T09:43:43.538Z,8.34
2019-04-06T09:46:49.340Z,8.49
2019-04-06T09:49:39.135Z,8.60
2019-04-06T09:52:21.615Z,8.77
2019-04-06T09:55:07.266Z,8.86
2019-04-06T09:58:17.777Z,8.95
2019-04-06T10:00:58.905Z,9.17
2019-04-06T10:03:51.235Z,9.34
2019-04-06T10:06:45.232Z,9.55
2019-04-06T10:09:31.120Z,9.69
2019-04-06T10:12:18.867Z,9.85
2019-04-06T10:15:15.889Z,9.82
2019-04-06T10:18:03.999Z,9.95
2019-04-06T10:20:54.660Z,10.28
2019-04-06T10:23:54.951Z,10.28
2019-04-06T10:26:40.187Z,10.50
2019-04-06T10:29:47.398Z,10.63
2019-04-06T10:32:26.661Z,10.64
2019-04-06T10:35:10.421Z,10.59
2019-04-06T10:38:03.860Z,10.44
2019-04-06T10:40:56.571Z,10.46
2019-04-06T10:43:56.639Z,10.47
2019-04-06T10:46:47.673Z,10.36
2019-04-06T10:49:50.311Z,10.42
2019-04-06T10:52:42.035Z,10.45
2019-04-06T10:55:31.815Z,10.30
2019-04-06T10:58:15.459Z,10.46
2019-04-06T11:01:04.997Z,10.53
2019-04-06T11:03:43.154Z,10.59
2019-04-06T11:06:27.505Z,10.57
2019-04-06T11:09:18.096Z,10.52
2019-04-06T11:12:00.001Z,10.52
2019-04-06T11:14:50.841Z,10.56
2019-04-06T11:17:47.494Z,10.67
2019-04-06T11:20:41.263Z,10.79
2019-04-06T11:23:30.915Z,10.86
2019-04-06T11:26:20.852Z,11.00
2019-04-06T11:29:09.533Z,11.06
2019-04-06T11:32:06.707Z,11.28
2019-04-06T11:34:52.167Z,11.58
2019-04-06T11:37:35.379Z,11.55
2019-04-06T11:40:16.053Z,11.62
2019-04-06T11:43:05.612Z,11.56
2019-04-06T11:45:46.514Z,11.54
2019-04-06T11:48:52.559Z,11.46
2019-04-06T11:51:42.301Z,11.50
2019-04-06T11:54:36.272Z,11.46
2019-04-06T11:57:26.589Z,11.57
2019-04-06T12:00:25.979Z,11.63
2019-04-06T12:03:08.304Z,11.81
2019-04-06T12:05:46.126Z,12.19
2019-04-06T12:08:34.157Z,12.44
2019-04-06T12:11:27.910Z,12.53
2019-04-06T12:14:26.418Z,12.56
2019-04-06T12:17:20.036Z,12.68
2019-04-06T12:20:26.208Z,12.77
2019-04-06T12:23:11.331Z,13.00
2019-04-06T12:26:00.969Z,13.16
2019-04-06T12:29:00.519Z,13.32
2019-04-06T12:31:45.071Z,13.57
2019-04-06T12:34:27.131Z,13.63
2019-04-06T12:37:18.017Z,13.59
2019-04-06T12:40:03.526Z,13.54
2019-04-06T12:42:41.980Z,13.40
2019-04-06T12:45:31.537Z,13.54
2019-04-06T12:48:13.674Z,13.78
2019-04-06T12:51:07.449Z,13.89
2019-04-06T12:53:45.333Z,14.13
2019-04-06T12:56:41.958Z,14.35
2019-04-06T12:59:47.678Z,14.38
2019-04-06T13:02:31.355Z,14.57
2019-04-06T13:05:23.477Z,14.66
2019-04-06T13:08:07.480Z,14.91
2019-04-06T13:10:48.657Z,14.93
2019-04-06T13:13:30.188Z,15.09
2019-04-06T13:16:11.356Z,14.88
2019-04-06T13:19:08.312Z,14.82
2019-04-06T13:21:57.719Z,14.88
2019-04-06T13:24:39.887Z,14.99
2019-04-06T13:27:24.854Z,14.91
2019-04-06T13:30:27.842Z,15.04
2019-04-06T13:33:17.514Z,15.14
2019-04-06T13:35:58.797Z,14.98
2019-04-06T13:39:01.343Z,15.01
2019-04-06T13:42:03.442Z,15.16
2019-04-06T13:44:52.854Z,15.12
2019-04-06T13:48:01.849Z,15.06
2019-04-06T13:50:38.302Z,14.84
2019-04-06T13:53:21.360Z,14.80
2019-04-06T13:56:13.473Z,14.94
2019-04-06T13:59:07.911Z,14.93
2019-04-06T14:01:58.640Z,15.18
2019-04-06T14:04:45.740Z,15.24
2019-04-06T14:07:36.435Z,15.24
2019-04-06T14:10:23.935Z,15.46
2019-04-06T14:16:47.668Z,15.52
2019-04-06T14:19:49.554Z,16.15
2019-04-06T14:22:40.913Z,16.89
2019-04-06T14:25:42.456Z,17.41
2019-04-06T14:28:48.352Z,17.77
2019-04-06T14:32:04.108Z,17.63
2019-04-06T14:35:15.674Z,17.66
2019-04-06T14:38:10.184Z,17.92
2019-04-06T14:41:01.197Z,18.14
2019-04-06T14:43:44.371Z,18.08
2019-04-06T14:46:49.681Z,18.03
2019-04-06T14:49:49.511Z,17.91
2019-04-06T14:52:41.039Z,18.05
2019-04-06T14:55:27.862Z,18.01
2019-04-06T14:58:19.583Z,18.10
2019-04-06T15:01:01.800Z,18.25
2019-04-06T15:03:52.775Z,18.35
2019-04-06T15:06:43.697Z,18.30
2019-04-06T15:09:34.564Z,18.35
2019-04-06T15:12:25.919Z,18.37
2019-04-06T15:15:16.768Z,18.46
2019-04-06T15:18:06.407Z,18.50
2019-04-06T15:20:50.984Z,18.55
2019-04-06T15:23:37.339Z,18.68
2019-04-06T15:26:19.379Z,18.62
2019-04-06T15:29:18.172Z,18.43
2019-04-06T15:32:21.466Z,18.53
2019-04-06T15:35:05.031Z,18.58
2019-04-06T15:37:58.182Z,18.81
2019-04-06T15:40:41.588Z,18.46
2019-04-06T15:43:38.737Z,18.19
2019-04-06T15:46:17.010Z,17.87
2019-04-06T15:48:56.924Z,17.59
2019-04-06T15:51:46.631Z,17.35
2019-04-06T15:54:24.735Z,17.35
2019-04-06T15:57:03.192Z,17.33
2019-04-06T16:00:03.010Z,17.48
2019-04-06T16:02:57.832Z,17.47
2019-04-06T16:05:50.610Z,17.38
2019-04-06T16:08:41.261Z,17.30
2019-04-06T16:11:34.758Z,17.08
2019-04-06T16:14:16.744Z,17.22
2019-04-06T16:16:57.980Z,17.15
2019-04-06T16:19:39.212Z,16.93
2019-04-06T16:22:24.023Z,16.87
2019-04-06T16:25:07.093Z,16.88
2019-04-06T16:27:53.337Z,16.82
2019-04-06T16:30:47.210Z,16.77
2019-04-06T16:33:40.737Z,16.67
2019-04-06T16:36:30.241Z,16.63
2019-04-06T16:39:27.828Z,16.60
2019-04-06T16:42:17.051Z,16.54
2019-04-06T16:45:13.837Z,16.52
2019-04-06T16:48:03.207Z,16.44
2019-04-06T16:50:40.923Z,16.35
2019-04-06T16:53:44.014Z,16.20
2019-04-06T16:56:34.710Z,16.08
2019-04-06T16:59:28.587Z,15.97
2019-04-06T17:02:24.703Z,15.89
2019-04-06T17:05:20.751Z,15.76
2019-04-06T17:08:12.769Z,15.62
2019-04-06T17:11:05.763Z,15.42
2019-04-06T17:14:01.570Z,15.33
2019-04-06T17:17:04.783Z,15.25
2019-04-06T17:19:59.525Z,15.17
2019-04-06T17:22:37.199Z,15.06
2019-04-06T17:25:23.400Z,15.05
2019-04-06T17:28:01.630Z,15.03
2019-04-06T17:30:38.575Z,14.98
2019-04-06T17:33:17.317Z,14.94
2019-04-06T17:36:00.627Z,14.84
2019-04-06T17:38:42.906Z,14.77
2019-04-06T17:41:46.530Z,14.71
2019-04-06T17:44:37.385Z,14.63
2019-04-06T17:47:28.807Z,14.51
2019-04-06T17:50:12.168Z,14.37
2019-04-06T17:52:55.577Z,14.30
2019-04-06T17:55:37.838Z,14.13
2019-04-06T17:58:35.508Z,14.10
2019-04-06T18:01:35.727Z,14.01
2019-04-06T18:04:25.293Z,13.96
2019-04-06T18:07:15.099Z,13.86
2019-04-06T18:10:04.620Z,13.81
2019-04-06T18:12:45.436Z,13.68
2019-04-06T18:15:17.796Z,13.60
2019-04-06T18:17:49.775Z,13.49
2019-04-06T18:20:22.031Z,13.41
2019-04-06T18:22:54.139Z,13.35
2019-04-06T18:25:26.162Z,13.17
2019-04-06T18:27:58.168Z,13.14
2019-04-06T18:30:30.502Z,13.06
2019-04-06T18:33:08.795Z,12.98
2019-04-06T18:35:40.649Z,12.90
2019-04-06T18:38:20.951Z,12.84
2019-04-06T18:40:53.648Z,12.77
2019-04-06T18:43:25.534Z,12.70
2019-04-06T18:45:57.633Z,12.57
2019-04-06T18:48:30.748Z,12.43
2019-04-06T18:51:02.536Z,12.36
2019-04-06T18:53:34.358Z,12.32
2019-04-06T18:56:06.422Z,12.21
2019-04-06T18:58:38.169Z,12.13
2019-04-06T19:01:10.113Z,12.05
2019-04-06T19:03:43.145Z,12.03
2019-04-06T19:06:15.157Z,12.02
2019-04-06T19:08:47.177Z,11.92
2019-04-06T19:11:19.031Z,11.89
2019-04-06T19:13:51.050Z,11.69
2019-04-06T19:16:22.892Z,11.57
2019-04-06T19:18:54.784Z,11.36
2019-04-06T19:21:26.792Z,11.22
2019-04-06T19:23:58.944Z,11.14
2019-04-06T19:26:31.139Z,11.10
2019-04-06T19:29:03.012Z,10.91
2019-04-06T19:31:35.389Z,11.08
2019-04-06T19:34:07.431Z,11.11
2019-04-06T19:36:39.556Z,11.21
2019-04-06T19:39:15.192Z,11.30
2019-04-06T19:41:47.286Z,11.45
2019-04-06T19:44:19.473Z,11.56
2019-04-06T19:46:51.327Z,11.71
2019-04-06T19:49:23.201Z,11.77
2019-04-06T19:51:55.432Z,11.80
2019-04-06T19:54:27.296Z,11.88
2019-04-06T19:56:59.116Z,11.88
2019-04-06T19:59:31.187Z,11.82
2019-04-06T20:02:03.074Z,11.74
2019-04-06T20:04:35.418Z,11.73
2019-04-06T20:07:10.958Z,11.66
2019-04-06T20:09:42.151Z,11.58
2019-04-06T20:12:14.138Z,11.68
2019-04-06T20:14:45.871Z,11.58
2019-04-06T20:17:17.861Z,11.53
2019-04-06T20:19:49.772Z,11.48
2019-04-06T20:22:22.961Z,11.45
2019-04-06T20:24:54.837Z,11.45
2019-04-06T20:27:26.987Z,11.40
2019-04-06T20:29:58.817Z,11.36
2019-04-06T20:32:30.626Z,11.36
2019-04-06T20:35:02.940Z,11.27
2019-04-06T20:37:35.784Z,11.08
2019-04-06T20:40:08.702Z,11.03
2019-04-06T20:42:40.585Z,11.06
2019-04-06T20:45:13.059Z,11.01
2019-04-06T20:47:44.855Z,11.07
2019-04-06T20:50:16.877Z,10.97
2019-04-06T20:52:49.148Z,10.83
2019-04-06T20:55:21.047Z,10.77
2019-04-06T20:57:52.792Z,10.72
2019-04-06T21:00:24.668Z,10.65
2019-04-06T21:02:56.665Z,10.59
2019-04-06T21:05:28.891Z,10.55
2019-04-06T21:08:00.904Z,10.50
2019-04-06T21:10:32.730Z,10.42
2019-04-06T21:13:04.440Z,10.40
2019-04-06T21:15:36.429Z,10.29
2019-04-06T21:18:09.326Z,10.30
2019-04-06T21:20:41.255Z,10.16
2019-04-06T21:23:15.131Z,10.11
2019-04-06T21:25:46.793Z,9.96
2019-04-06T21:28:18.813Z,9.93
2019-04-06T21:30:50.581Z,9.92
2019-04-06T21:33:23.338Z,10.01
2019-04-06T21:35:55.362Z,9.96
2019-04-06T21:38:27.265Z,9.98
2019-04-06T21:40:59.305Z,9.86
2019-04-06T21:43:31.144Z,9.82
2019-04-06T21:46:02.905Z,9.92
2019-04-06T21:48:35.224Z,9.86
2019-04-06T21:51:08.020Z,9.82
2019-04-06T21:53:40.261Z,9.77
2019-04-06T21:56:12.338Z,9.72
2019-04-06T21:58:44.692Z,9.67
2019-04-06T22:01:18.500Z,9.62
2019-04-06T22:03:52.322Z,9.55
2019-04-06T22:06:25.705Z,9.47
2019-04-06T22:08:57.755Z,9.33
2019-04-06T22:11:29.640Z,9.22
2019-04-06T22:14:01.887Z,9.06
2019-04-06T22:16:33.820Z,8.96
2019-04-06T22:19:05.807Z,8.82
2019-04-06T22:21:37.610Z,8.74
2019-04-06T22:24:09.599Z,8.68
2019-04-06T22:26:41.375Z,8.62
2019-04-06T22:29:13.120Z,8.67
2019-04-06T22:31:44.963Z,8.63
2019-04-06T22:34:17.249Z,8.65
2019-04-06T22:36:49.040Z,8.62
2019-04-06T22:39:21.511Z,8.67
2019-04-06T22:41:53.695Z,8.89
2019-04-06T22:44:26.586Z,8.86
2019-04-06T22:46:58.901Z,8.75
2019-04-06T22:49:30.677Z,8.69
2019-04-06T22:52:02.419Z,8.56
2019-04-06T22:54:34.504Z,8.43
2019-04-06T22:57:06.401Z,8.34
2019-04-06T22:59:38.213Z,8.26
2019-04-06T23:02:11.962Z,8.20
2019-04-06T23:04:51.494Z,8.13
2019-04-06T23:07:25.103Z,8.06
2019-04-06T23:09:57.688Z,8.02
2019-04-06T23:12:29.469Z,7.98
2019-04-06T23:15:01.630Z,8.05
2019-04-06T23:17:34.000Z,8.09
2019-04-06T23:20:06.606Z,8.06
2019-04-06T23:22:38.318Z,8.03
2019-04-06T23:25:10.632Z,8.09
2019-04-06T23:27:42.398Z,8.09
2019-04-06T23:30:14.354Z,7.97
2019-04-06T23:32:46.596Z,7.86
2019-04-06T23:35:18.594Z,7.93
2019-04-06T23:37:50.299Z,7.99
2019-04-06T23:40:22.454Z,7.95
2019-04-06T23:42:54.126Z,7.85
2019-04-06T23:45:26.261Z,7.79
2019-04-06T23:47:58.125Z,7.75
2019-04-06T23:50:30.118Z,7.71
2019-04-06T23:53:01.913Z,7.70
2019-04-06T23:55:33.728Z,7.74
2019-04-06T23:58:05.654Z,7.73
